Time;durP1;ratioP1;P1;durP2;ratioP2;P2;SDS_P1;SDS_P2;PMS_P1;PMS_P2;Temp;Humidity;BMP_temperature;BMP_pressure;BME280_temperature;BME280_humidity;BME280_pressure;Samples;Min_cycle;Max_cycle;Signal;HPM_P1;HPM_P2
2021/09/26 00:00:43;;;;;;;63.25;41.42;;;;;;;;;;5103434;27;20393;-75
2021/09/26 00:03:09;;;;;;;58.83;40.55;;;;;;;;;;5104125;27;20408;-75
2021/09/26 00:05:35;;;;;;;55.25;40.42;;;;;;;;;;5110470;27;20138;-75
2021/09/26 00:08:01;;;;;;;55.85;39.60;;;;;;;;;;5099673;27;20051;-75
2021/09/26 00:10:27;;;;;;;57.72;39.70;;;;;;;;;;5116373;27;20512;-75
2021/09/26 00:12:53;;;;;;;54.30;39.10;;;;;;;;;;5110620;27;20047;-75
2021/09/26 00:15:20;;;;;;;58.42;38.95;;;;;;;;;;5101839;27;20066;-75
2021/09/26 00:17:47;;;;;;;56.20;39.30;;;;;;;;;;5113595;27;20093;-76
2021/09/26 00:20:14;;;;;;;58.63;39.45;;;;;;;;;;5098006;27;20042;-75
2021/09/26 00:22:40;;;;;;;62.90;39.75;;;;;;;;;;5111934;27;20042;-75
2021/09/26 00:25:06;;;;;;;53.33;38.05;;;;;;;;;;5111653;27;20151;-75
2021/09/26 00:27:33;;;;;;;56.08;38.33;;;;;;;;;;5113183;27;20051;-75
2021/09/26 00:29:59;;;;;;;60.72;41.22;;;;;;;;;;5113193;27;20366;-75
2021/09/26 00:32:25;;;;;;;59.33;40.97;;;;;;;;;;5128581;27;20398;-75
2021/09/26 00:34:51;;;;;;;60.33;40.25;;;;;;;;;;5099695;27;20057;-75
2021/09/26 00:37:20;;;;;;;59.05;40.25;;;;;;;;;;5100144;27;20526;-75
2021/09/26 00:39:46;;;;;;;59.72;40.85;;;;;;;;;;5117319;27;20175;-76
2021/09/26 00:42:12;;;;;;;67.43;42.83;;;;;;;;;;5116785;27;20486;-75
2021/09/26 00:44:38;;;;;;;59.45;39.50;;;;;;;;;;5113508;27;20047;-75
2021/09/26 00:47:04;;;;;;;57.20;38.53;;;;;;;;;;5105177;27;20393;-75
2021/09/26 00:49:30;;;;;;;63.85;42.42;;;;;;;;;;5119238;27;20050;-75
2021/09/26 00:51:57;;;;;;;57.67;39.92;;;;;;;;;;5114789;27;20050;-75
2021/09/26 00:54:23;;;;;;;57.78;37.65;;;;;;;;;;5114447;27;20767;-75
2021/09/26 00:56:50;;;;;;;58.08;38.55;;;;;;;;;;5118166;27;20110;-75
2021/09/26 00:59:17;;;;;;;56.80;40.95;;;;;;;;;;5106236;27;20041;-75
2021/09/26 01:01:43;;;;;;;61.42;42.03;;;;;;;;;;5103481;27;20047;-75
2021/09/26 01:04:09;;;;;;;57.60;39.67;;;;;;;;;;5104905;27;20047;-75
2021/09/26 01:06:35;;;;;;;61.67;41.28;;;;;;;;;;5114539;27;20051;-75
2021/09/26 01:09:04;;;;;;;66.32;41.05;;;;;;;;;;5136539;27;20058;-75
2021/09/26 01:11:40;;;;;;;53.10;39.85;;;;;;;;;;5117122;27;20047;-75
2021/09/26 01:14:32;;;;;;;59.92;40.55;;;;;;;;;;5117500;27;20137;-76
2021/09/26 01:17:01;;;;;;;58.35;41.38;;;;;;;;;;5118074;27;20074;-75
2021/09/26 01:19:41;;;;;;;57.28;39.75;;;;;;;;;;5117925;27;20042;-75
2021/09/26 01:22:10;;;;;;;63.88;41.10;;;;;;;;;;5117606;27;20112;-75
2021/09/26 01:24:41;;;;;;;57.80;39.03;;;;;;;;;;5116589;27;20055;-75
2021/09/26 01:27:25;;;;;;;55.80;39.72;;;;;;;;;;5105975;27;20039;-76
2021/09/26 01:30:10;;;;;;;61.50;41.30;;;;;;;;;;5115992;27;20043;-75
2021/09/26 01:32:39;;;;;;;60.75;42.35;;;;;;;;;;5099419;27;20043;-75
2021/09/26 01:35:06;;;;;;;64.38;41.75;;;;;;;;;;5115815;27;20379;-76
2021/09/26 01:37:39;;;;;;;55.35;39.72;;;;;;;;;;5117010;27;20053;-75
2021/09/26 01:40:07;;;;;;;63.13;42.88;;;;;;;;;;5105094;27;20538;-75
2021/09/26 01:42:39;;;;;;;73.88;44.08;;;;;;;;;;5115625;27;20459;-76
2021/09/26 01:45:14;;;;;;;62.88;42.53;;;;;;;;;;5120536;27;20478;-75
2021/09/26 01:47:46;;;;;;;73.95;45.60;;;;;;;;;;5114412;27;20047;-75
2021/09/26 01:50:12;;;;;;;75.20;45.97;;;;;;;;;;5135926;27;20047;-75
2021/09/26 01:52:39;;;;;;;69.13;45.70;;;;;;;;;;5136776;27;20139;-75
2021/09/26 01:55:06;;;;;;;64.50;42.95;;;;;;;;;;5119250;27;20041;-75
2021/09/26 01:57:33;;;;;;;67.00;46.03;;;;;;;;;;5118315;27;20082;-76
2021/09/26 02:00:02;;;;;;;80.95;48.55;;;;;;;;;;5103418;27;20103;-75
2021/09/26 02:02:28;;;;;;;74.30;46.20;;;;;;;;;;5114556;27;20431;-75
2021/09/26 02:04:59;;;;;;;73.32;47.33;;;;;;;;;;5097609;27;20038;-75
2021/09/26 02:07:30;;;;;;;75.57;49.50;;;;;;;;;;5115734;27;20043;-75
2021/09/26 02:09:56;;;;;;;76.80;50.13;;;;;;;;;;5114420;27;20374;-75
2021/09/26 02:12:23;;;;;;;76.43;50.55;;;;;;;;;;5114315;27;20276;-75
2021/09/26 02:14:50;;;;;;;71.18;47.22;;;;;;;;;;5118639;27;20058;-75
2021/09/26 02:17:17;;;;;;;76.88;47.85;;;;;;;;;;5103684;27;20116;-75
2021/09/26 02:19:43;;;;;;;70.38;47.45;;;;;;;;;;5118232;27;20047;-75
2021/09/26 02:22:10;;;;;;;71.18;46.63;;;;;;;;;;5095793;27;20062;-75
2021/09/26 02:24:37;;;;;;;75.97;49.75;;;;;;;;;;5098527;27;20100;-75
2021/09/26 02:27:04;;;;;;;81.80;49.30;;;;;;;;;;5112098;27;20114;-75
2021/09/26 02:29:30;;;;;;;82.93;52.20;;;;;;;;;;5111645;27;20039;-75
2021/09/26 02:31:56;;;;;;;74.32;48.90;;;;;;;;;;5100808;27;20127;-75
2021/09/26 02:34:22;;;;;;;81.95;51.50;;;;;;;;;;5113291;27;20509;-75
2021/09/26 02:36:48;;;;;;;82.63;51.70;;;;;;;;;;5116478;27;20524;-75
2021/09/26 02:39:15;;;;;;;84.78;51.17;;;;;;;;;;5111071;27;20031;-75
2021/09/26 02:41:47;;;;;;;72.47;47.70;;;;;;;;;;5109035;27;20047;-75
2021/09/26 02:44:15;;;;;;;90.05;53.15;;;;;;;;;;5113148;27;20043;-75
2021/09/26 02:46:43;;;;;;;74.85;48.95;;;;;;;;;;5109936;27;20441;-75
2021/09/26 02:49:10;;;;;;;83.63;49.25;;;;;;;;;;5099191;28;20043;-75
2021/09/26 02:51:36;;;;;;;72.07;47.80;;;;;;;;;;5110925;27;20046;-75
2021/09/26 02:54:02;;;;;;;79.57;50.90;;;;;;;;;;5100054;27;20042;-75
2021/09/26 02:56:29;;;;;;;72.60;47.95;;;;;;;;;;5111563;27;20504;-75
2021/09/26 02:59:00;;;;;;;72.65;47.65;;;;;;;;;;5097329;27;20138;-75
2021/09/26 03:01:26;;;;;;;88.03;52.67;;;;;;;;;;5110870;27;20046;-75
2021/09/26 03:03:52;;;;;;;75.68;49.75;;;;;;;;;;5112031;27;20043;-75
2021/09/26 03:06:18;;;;;;;83.28;49.92;;;;;;;;;;5101322;28;20116;-75
2021/09/26 03:08:44;;;;;;;76.50;49.75;;;;;;;;;;5114073;27;20075;-75
2021/09/26 03:11:10;;;;;;;76.65;50.03;;;;;;;;;;5109385;27;20035;-75
2021/09/26 03:13:36;;;;;;;77.05;47.28;;;;;;;;;;5112202;27;20148;-75
2021/09/26 03:16:07;;;;;;;80.78;50.97;;;;;;;;;;5122112;27;20055;-75
2021/09/26 03:18:33;;;;;;;74.22;48.42;;;;;;;;;;5117335;27;20135;-75
2021/09/26 03:20:59;;;;;;;79.63;49.22;;;;;;;;;;5113150;27;20042;-75
2021/09/26 03:23:25;;;;;;;71.22;46.85;;;;;;;;;;5114637;27;20371;-75
2021/09/26 03:25:52;;;;;;;70.95;44.75;;;;;;;;;;5114647;27;20068;-76
2021/09/26 03:28:18;;;;;;;71.30;45.42;;;;;;;;;;5134655;27;20039;-75
2021/09/26 03:30:44;;;;;;;83.65;49.60;;;;;;;;;;5114405;27;20371;-75
2021/09/26 03:33:10;;;;;;;82.95;49.47;;;;;;;;;;5117580;27;20078;-75
2021/09/26 03:35:37;;;;;;;85.55;51.90;;;;;;;;;;5099043;27;20479;-75
2021/09/26 03:38:04;;;;;;;90.82;51.72;;;;;;;;;;5115230;27;20054;-75
2021/09/26 03:40:30;;;;;;;74.35;47.13;;;;;;;;;;5112439;27;20054;-75
2021/09/26 03:42:57;;;;;;;69.22;46.58;;;;;;;;;;5131984;27;20532;-75
2021/09/26 03:45:23;;;;;;;82.50;49.70;;;;;;;;;;5112471;27;20127;-75
2021/09/26 03:47:49;;;;;;;96.78;53.78;;;;;;;;;;5130784;27;20097;-75
2021/09/26 03:50:15;;;;;;;77.13;48.15;;;;;;;;;;5104068;27;20068;-75
2021/09/26 03:52:41;;;;;;;72.68;45.10;;;;;;;;;;5103119;27;20063;-75
2021/09/26 03:55:09;;;;;;;73.97;46.38;;;;;;;;;;5112594;27;20374;-75
2021/09/26 03:57:35;;;;;;;76.75;47.78;;;;;;;;;;5124945;27;20035;-75
2021/09/26 04:00:02;;;;;;;85.95;53.08;;;;;;;;;;5122358;27;20053;-75
2021/09/26 04:02:28;;;;;;;98.80;52.97;;;;;;;;;;5104455;27;20654;-75
2021/09/26 04:04:54;;;;;;;99.18;55.60;;;;;;;;;;5112063;27;20051;-75
2021/09/26 04:07:20;;;;;;;110.25;57.85;;;;;;;;;;5113612;27;20043;-75
2021/09/26 04:09:46;;;;;;;101.25;53.42;;;;;;;;;;5111530;27;20034;-75
2021/09/26 04:12:12;;;;;;;98.57;53.70;;;;;;;;;;5100241;27;20038;-75
2021/09/26 04:14:39;;;;;;;99.82;52.55;;;;;;;;;;5109966;27;20043;-75
2021/09/26 04:17:05;;;;;;;120.78;58.58;;;;;;;;;;5101834;27;20043;-75
2021/09/26 04:19:31;;;;;;;101.85;55.38;;;;;;;;;;5097684;27;20498;-75
2021/09/26 04:21:57;;;;;;;95.78;53.92;;;;;;;;;;5116461;27;20138;-75
2021/09/26 04:24:23;;;;;;;91.25;52.67;;;;;;;;;;5116499;27;20046;-75
2021/09/26 04:26:49;;;;;;;97.00;52.75;;;;;;;;;;5117712;27;20091;-75
2021/09/26 04:29:15;;;;;;;114.35;56.45;;;;;;;;;;5119399;27;20099;-75
2021/09/26 04:31:41;;;;;;;94.75;53.33;;;;;;;;;;5138751;27;20061;-75
2021/09/26 04:34:07;;;;;;;93.13;50.85;;;;;;;;;;5101900;27;20035;-75
2021/09/26 04:36:33;;;;;;;137.35;60.60;;;;;;;;;;5114934;27;20054;-75
2021/09/26 04:38:59;;;;;;;105.13;56.50;;;;;;;;;;5117705;27;20043;-75
2021/09/26 04:41:25;;;;;;;112.35;57.38;;;;;;;;;;5136579;27;20076;-75
2021/09/26 04:43:51;;;;;;;105.85;55.72;;;;;;;;;;5118895;27;20039;-75
2021/09/26 04:46:18;;;;;;;101.38;53.80;;;;;;;;;;5124849;27;20054;-75
2021/09/26 04:48:44;;;;;;;98.70;52.40;;;;;;;;;;5118833;27;20474;-75
2021/09/26 04:51:10;;;;;;;134.57;61.88;;;;;;;;;;5103944;27;20486;-75
2021/09/26 04:53:36;;;;;;;106.90;54.33;;;;;;;;;;5116468;27;20043;-75
2021/09/26 04:56:02;;;;;;;95.65;55.47;;;;;;;;;;5101972;27;20043;-76
2021/09/26 04:58:29;;;;;;;116.55;59.70;;;;;;;;;;5118503;27;20050;-76
2021/09/26 05:00:55;;;;;;;129.05;63.58;;;;;;;;;;5117716;27;20050;-75
2021/09/26 05:03:21;;;;;;;117.93;59.80;;;;;;;;;;5116486;27;20050;-76
2021/09/26 05:05:47;;;;;;;101.35;55.20;;;;;;;;;;5117244;27;20350;-75
2021/09/26 05:08:13;;;;;;;106.10;56.97;;;;;;;;;;5107811;27;20470;-76
2021/09/26 05:10:39;;;;;;;106.28;58.05;;;;;;;;;;5117942;27;20631;-76
2021/09/26 05:13:06;;;;;;;99.05;55.03;;;;;;;;;;5134425;27;20041;-76
2021/09/26 05:15:32;;;;;;;105.35;56.53;;;;;;;;;;5114623;27;20467;-75
2021/09/26 05:17:58;;;;;;;80.90;50.72;;;;;;;;;;5100803;27;20059;-75
2021/09/26 05:20:24;;;;;;;88.85;50.35;;;;;;;;;;5117775;27;20477;-75
2021/09/26 05:22:50;;;;;;;91.35;53.33;;;;;;;;;;5116607;27;20377;-76
2021/09/26 05:25:17;;;;;;;76.82;48.88;;;;;;;;;;5118104;27;20047;-75
2021/09/26 05:27:43;;;;;;;98.03;53.42;;;;;;;;;;5137377;27;20050;-75
2021/09/26 05:30:09;;;;;;;94.43;53.13;;;;;;;;;;5106984;27;20050;-75
2021/09/26 05:32:36;;;;;;;74.80;48.53;;;;;;;;;;5105665;27;20062;-74
2021/09/26 05:35:02;;;;;;;75.95;49.78;;;;;;;;;;5101369;27;20031;-75
2021/09/26 05:37:28;;;;;;;70.38;44.85;;;;;;;;;;5100248;27;20118;-75
2021/09/26 05:39:54;;;;;;;84.78;50.10;;;;;;;;;;5138472;27;20054;-75
2021/09/26 05:42:21;;;;;;;89.65;52.20;;;;;;;;;;5118042;27;20062;-75
2021/09/26 05:44:47;;;;;;;80.35;48.33;;;;;;;;;;5111114;27;20047;-75
2021/09/26 05:47:14;;;;;;;70.30;46.45;;;;;;;;;;5119532;27;20046;-75
2021/09/26 05:49:40;;;;;;;73.78;47.03;;;;;;;;;;5129993;27;20059;-75
2021/09/26 05:52:07;;;;;;;79.45;48.00;;;;;;;;;;5115918;27;20043;-76
2021/09/26 05:54:34;;;;;;;85.05;49.42;;;;;;;;;;5114517;27;20050;-75
2021/09/26 05:57:01;;;;;;;73.15;47.13;;;;;;;;;;5121120;27;20062;-75
2021/09/26 05:59:27;;;;;;;77.68;47.95;;;;;;;;;;5140502;27;20049;-75
2021/09/26 06:01:54;;;;;;;76.70;46.20;;;;;;;;;;5117357;27;20439;-75
2021/09/26 06:04:20;;;;;;;68.32;46.47;;;;;;;;;;5124231;27;20049;-76
2021/09/26 06:06:46;;;;;;;68.65;46.20;;;;;;;;;;5108789;27;20389;-75
2021/09/26 06:09:12;;;;;;;62.10;42.72;;;;;;;;;;5115715;27;20047;-76
2021/09/26 06:11:38;;;;;;;65.82;44.55;;;;;;;;;;5121451;27;20078;-76
2021/09/26 06:14:04;;;;;;;58.13;41.75;;;;;;;;;;5111305;27;20050;-76
2021/09/26 06:16:30;;;;;;;56.58;40.72;;;;;;;;;;5105644;28;20123;-76
2021/09/26 06:18:56;;;;;;;51.80;38.53;;;;;;;;;;5111979;27;20108;-78
2021/09/26 06:21:22;;;;;;;53.17;39.25;;;;;;;;;;5110830;27;20042;-76
2021/09/26 06:23:48;;;;;;;47.42;37.60;;;;;;;;;;5095269;28;20043;-76
2021/09/26 06:26:14;;;;;;;47.53;35.60;;;;;;;;;;5092762;27;20087;-77
2021/09/26 06:28:40;;;;;;;47.42;35.08;;;;;;;;;;5098060;28;20035;-77
2021/09/26 06:31:06;;;;;;;41.22;31.90;;;;;;;;;;5121694;27;20039;-77
2021/09/26 06:33:32;;;;;;;39.15;31.33;;;;;;;;;;5116232;27;20053;-77
2021/09/26 06:35:58;;;;;;;36.08;30.02;;;;;;;;;;5110224;28;20096;-77
2021/09/26 06:38:24;;;;;;;36.28;30.42;;;;;;;;;;5127600;27;20039;-77
2021/09/26 06:40:51;;;;;;;32.65;27.83;;;;;;;;;;5120578;27;20070;-77
2021/09/26 06:43:17;;;;;;;33.00;26.83;;;;;;;;;;5118525;27;20082;-77
2021/09/26 06:45:43;;;;;;;31.90;26.73;;;;;;;;;;5112632;27;20092;-78
2021/09/26 06:48:09;;;;;;;30.35;25.15;;;;;;;;;;5107808;27;20043;-77
2021/09/26 06:50:35;;;;;;;31.77;25.17;;;;;;;;;;5109509;27;20039;-77
2021/09/26 06:53:01;;;;;;;27.77;24.58;;;;;;;;;;5116327;27;20047;-79
2021/09/26 06:55:27;;;;;;;30.05;24.70;;;;;;;;;;5100904;27;20087;-80
2021/09/26 06:57:53;;;;;;;28.25;24.95;;;;;;;;;;5088224;27;20596;-82
2021/09/26 07:00:19;;;;;;;30.27;25.70;;;;;;;;;;5112869;27;20107;-82
2021/09/26 07:02:45;;;;;;;33.35;26.60;;;;;;;;;;5120920;27;20055;-79
2021/09/26 07:05:12;;;;;;;28.50;23.85;;;;;;;;;;5097747;27;20047;-80
2021/09/26 07:07:38;;;;;;;29.13;25.13;;;;;;;;;;5117908;27;20154;-81
2021/09/26 07:10:05;;;;;;;29.90;26.10;;;;;;;;;;5124304;27;20113;-78
2021/09/26 07:12:31;;;;;;;27.88;24.33;;;;;;;;;;5108142;27;20051;-81
2021/09/26 07:15:01;;;;;;;30.55;24.45;;;;;;;;;;5103360;27;20430;-82
2021/09/26 07:17:27;;;;;;;29.90;24.75;;;;;;;;;;5116688;27;20085;-80
2021/09/26 07:19:53;;;;;;;26.45;23.65;;;;;;;;;;5089684;27;20078;-78
2021/09/26 07:22:23;;;;;;;25.65;22.60;;;;;;;;;;5093954;27;20103;-83
2021/09/26 07:24:50;;;;;;;25.95;23.05;;;;;;;;;;5123318;27;20069;-78
2021/09/26 07:27:17;;;;;;;23.52;20.95;;;;;;;;;;5120757;27;20042;-78
2021/09/26 07:29:44;;;;;;;22.80;20.40;;;;;;;;;;5092700;28;20047;-77
2021/09/26 07:32:10;;;;;;;21.00;18.80;;;;;;;;;;5109737;27;20047;-76
2021/09/26 07:34:36;;;;;;;22.70;19.88;;;;;;;;;;5124048;27;20073;-76
2021/09/26 07:37:02;;;;;;;22.75;20.25;;;;;;;;;;5108549;28;20127;-77
2021/09/26 07:39:28;;;;;;;21.60;18.42;;;;;;;;;;5117043;27;20099;-79
2021/09/26 07:41:54;;;;;;;20.33;18.17;;;;;;;;;;5097078;27;20065;-77
2021/09/26 07:44:20;;;;;;;20.25;18.17;;;;;;;;;;5101592;27;20043;-76
2021/09/26 07:46:47;;;;;;;18.95;17.05;;;;;;;;;;5117427;27;20035;-77
2021/09/26 07:49:13;;;;;;;19.50;16.45;;;;;;;;;;5085994;27;20467;-78
2021/09/26 07:51:39;;;;;;;18.33;16.52;;;;;;;;;;5105930;27;20454;-78
2021/09/26 07:54:05;;;;;;;17.05;15.35;;;;;;;;;;5112621;27;20126;-78
2021/09/26 07:56:32;;;;;;;18.00;16.20;;;;;;;;;;5115030;27;20047;-80
2021/09/26 07:58:58;;;;;;;16.95;15.27;;;;;;;;;;5098371;27;20384;-79
2021/09/26 08:01:24;;;;;;;17.40;15.50;;;;;;;;;;5092786;27;20414;-78
2021/09/26 08:03:50;;;;;;;18.38;16.48;;;;;;;;;;5106577;27;20074;-78
2021/09/26 08:06:18;;;;;;;16.60;14.93;;;;;;;;;;5095808;27;20126;-77
2021/09/26 08:08:44;;;;;;;16.08;14.40;;;;;;;;;;5115936;27;20483;-77
2021/09/26 08:11:10;;;;;;;15.90;14.25;;;;;;;;;;5123952;28;20442;-77
2021/09/26 08:13:37;;;;;;;14.65;13.30;;;;;;;;;;5107139;28;20051;-78
2021/09/26 08:16:03;;;;;;;15.43;13.55;;;;;;;;;;5096889;28;20047;-77
2021/09/26 08:18:29;;;;;;;15.57;13.30;;;;;;;;;;5111563;28;20058;-76
2021/09/26 08:20:55;;;;;;;14.35;12.95;;;;;;;;;;5101440;28;20040;-75
2021/09/26 08:23:21;;;;;;;15.38;13.27;;;;;;;;;;5109036;28;20042;-74
2021/09/26 08:25:47;;;;;;;14.95;13.10;;;;;;;;;;5124335;28;20054;-75
2021/09/26 08:28:13;;;;;;;14.45;13.02;;;;;;;;;;5110771;28;20047;-73
2021/09/26 08:30:40;;;;;;;16.90;12.43;;;;;;;;;;5112386;28;20471;-74
2021/09/26 08:33:06;;;;;;;14.48;12.90;;;;;;;;;;5121694;28;20035;-80
2021/09/26 08:35:32;;;;;;;18.83;15.85;;;;;;;;;;5093276;28;20057;-75
2021/09/26 08:37:59;;;;;;;14.95;13.43;;;;;;;;;;5125952;28;20047;-80
2021/09/26 08:40:25;;;;;;;13.95;12.43;;;;;;;;;;5109262;28;20123;-76
2021/09/26 08:42:51;;;;;;;13.68;12.32;;;;;;;;;;5102163;28;20127;-75
2021/09/26 08:45:18;;;;;;;15.98;13.85;;;;;;;;;;5101032;28;20118;-75
2021/09/26 08:47:44;;;;;;;16.77;13.85;;;;;;;;;;5130428;28;20425;-75
2021/09/26 08:50:12;;;;;;;13.15;11.95;;;;;;;;;;5126754;28;20126;-75
2021/09/26 08:52:41;;;;;;;12.73;11.43;;;;;;;;;;5129552;28;20090;-75
2021/09/26 08:55:07;;;;;;;17.50;11.70;;;;;;;;;;5108601;28;20514;-75
2021/09/26 08:57:34;;;;;;;12.70;11.40;;;;;;;;;;5107571;28;20134;-74
2021/09/26 09:00:00;;;;;;;12.25;11.05;;;;;;;;;;5114785;28;20475;-77
2021/09/26 09:02:26;;;;;;;14.30;11.15;;;;;;;;;;5101687;28;20087;-76
2021/09/26 09:04:52;;;;;;;17.50;12.40;;;;;;;;;;5107985;28;20584;-79
2021/09/26 09:07:19;;;;;;;13.57;11.50;;;;;;;;;;5109676;27;20394;-79
2021/09/26 09:09:45;;;;;;;;;;;;;;;;;;5111941;27;20409;-77
2021/09/26 09:12:11;;;;;;;13.48;11.73;;;;;;;;;;5108549;28;19920;-78
2021/09/26 09:14:55;;;;;;;16.25;12.10;;;;;;;;;;5103383;28;20044;-77
2021/09/26 09:17:30;;;;;;;15.38;13.07;;;;;;;;;;5085208;28;20051;-78
2021/09/26 09:20:08;;;;;;;17.17;13.38;;;;;;;;;;5097839;28;20036;-78
2021/09/26 09:22:34;;;;;;;19.85;17.70;;;;;;;;;;5107558;28;20043;-77
2021/09/26 09:25:00;;;;;;;15.57;12.80;;;;;;;;;;5104187;28;20047;-77
2021/09/26 09:27:26;;;;;;;17.08;12.18;;;;;;;;;;5102707;28;20471;-79
2021/09/26 09:29:52;;;;;;;14.60;12.23;;;;;;;;;;5089861;28;20043;-78
2021/09/26 09:32:20;;;;;;;15.05;12.30;;;;;;;;;;5072991;28;20048;-78
2021/09/26 09:34:47;;;;;;;14.30;12.60;;;;;;;;;;5093092;28;20044;-81
2021/09/26 09:37:17;;;;;;;20.23;11.95;;;;;;;;;;5091306;28;20112;-80
2021/09/26 09:40:02;;;;;;;15.18;12.25;;;;;;;;;;5107005;28;20428;-79
2021/09/26 09:42:30;;;;;;;16.80;13.23;;;;;;;;;;5105698;28;20039;-76
2021/09/26 09:44:56;;;;;;;18.45;12.82;;;;;;;;;;5107215;28;20079;-79
2021/09/26 09:47:22;;;;;;;16.13;13.60;;;;;;;;;;5099118;28;20040;-80
2021/09/26 09:49:55;;;;;;;15.63;12.45;;;;;;;;;;5105226;28;20398;-80
2021/09/26 09:52:41;;;;;;;16.17;13.60;;;;;;;;;;5097866;28;20040;-80
2021/09/26 09:55:07;;;;;;;16.27;14.40;;;;;;;;;;5101790;28;20040;-80
2021/09/26 09:57:33;;;;;;;14.15;12.60;;;;;;;;;;5088894;28;20117;-81
2021/09/26 10:00:13;;;;;;;16.73;13.10;;;;;;;;;;5102481;28;20474;-80
2021/09/26 10:02:40;;;;;;;14.60;12.30;;;;;;;;;;5085844;28;20558;-81
2021/09/26 10:05:06;;;;;;;17.10;13.25;;;;;;;;;;5096243;28;20055;-78
2021/09/26 10:07:32;;;;;;;18.27;16.13;;;;;;;;;;5082740;28;20076;-76
2021/09/26 10:09:59;;;;;;;22.77;19.25;;;;;;;;;;5094067;28;20040;-76
2021/09/26 10:12:29;;;;;;;15.25;13.75;;;;;;;;;;5092140;28;20440;-75
2021/09/26 10:14:57;;;;;;;15.52;13.48;;;;;;;;;;5107088;27;20074;-76
2021/09/26 10:17:23;;;;;;;18.83;14.25;;;;;;;;;;5118959;27;20044;-76
2021/09/26 10:19:50;;;;;;;15.77;13.98;;;;;;;;;;5100606;27;20395;-77
2021/09/26 10:22:16;;;;;;;16.90;13.32;;;;;;;;;;5105750;27;20040;-76
2021/09/26 10:24:47;;;;;;;15.30;13.68;;;;;;;;;;5125792;27;20112;-77
2021/09/26 10:27:18;;;;;;;18.58;13.85;;;;;;;;;;5109742;27;20046;-77
2021/09/26 10:29:44;;;;;;;15.60;13.45;;;;;;;;;;5095001;28;20053;-76
2021/09/26 10:32:11;;;;;;;15.48;12.82;;;;;;;;;;5111405;27;20089;-76
2021/09/26 10:34:37;;;;;;;18.52;13.15;;;;;;;;;;5130339;27;20039;-75
2021/09/26 10:37:05;;;;;;;15.80;12.70;;;;;;;;;;5126739;27;20054;-78
2021/09/26 10:39:32;;;;;;;17.45;14.15;;;;;;;;;;5112348;27;20134;-77
2021/09/26 10:42:15;;;;;;;18.15;14.77;;;;;;;;;;5128746;27;20051;-77
2021/09/26 10:44:45;;;;;;;14.65;13.00;;;;;;;;;;5109685;27;20057;-77
2021/09/26 10:47:16;;;;;;;15.43;12.38;;;;;;;;;;5107172;27;20043;-77
2021/09/26 10:49:44;;;;;;;18.15;13.13;;;;;;;;;;5108843;27;20046;-77
2021/09/26 10:52:28;;;;;;;16.50;12.93;;;;;;;;;;5118907;27;20039;-77
2021/09/26 10:54:55;;;;;;;15.60;13.00;;;;;;;;;;5130578;27;20035;-78
2021/09/26 10:57:22;;;;;;;14.90;12.48;;;;;;;;;;5112579;27;20066;-77
2021/09/26 10:59:52;;;;;;;14.27;12.77;;;;;;;;;;5130872;27;20183;-78
2021/09/26 11:02:24;;;;;;;14.20;12.50;;;;;;;;;;5108366;27;20050;-76
2021/09/26 11:04:52;;;;;;;13.68;12.27;;;;;;;;;;5130639;27;20104;-76
2021/09/26 11:07:19;;;;;;;16.40;12.85;;;;;;;;;;5120317;27;20055;-76
2021/09/26 11:09:57;;;;;;;16.50;13.18;;;;;;;;;;5110934;27;20054;-76
2021/09/26 11:12:41;;;;;;;20.88;13.07;;;;;;;;;;5124064;27;20084;-77
2021/09/26 11:15:07;;;;;;;16.70;12.85;;;;;;;;;;5113776;27;20055;-77
2021/09/26 11:17:45;;;;;;;15.13;12.50;;;;;;;;;;5130701;27;20043;-76
2021/09/26 11:20:12;;;;;;;18.05;13.88;;;;;;;;;;5113449;27;20047;-77
2021/09/26 11:22:38;;;;;;;15.05;13.13;;;;;;;;;;5123610;27;20431;-77
2021/09/26 11:25:04;;;;;;;15.55;13.18;;;;;;;;;;5105244;28;20039;-77
2021/09/26 11:27:35;;;;;;;15.20;12.98;;;;;;;;;;5099117;27;20043;-76
2021/09/26 11:30:12;;;;;;;22.05;13.38;;;;;;;;;;5109183;27;20097;-76
2021/09/26 11:32:39;;;;;;;16.05;13.35;;;;;;;;;;5130415;27;20053;-77
2021/09/26 11:35:08;;;;;;;15.75;14.05;;;;;;;;;;5128412;27;20486;-75
2021/09/26 11:37:37;;;;;;;17.05;14.20;;;;;;;;;;5121682;27;20485;-77
2021/09/26 11:40:06;;;;;;;18.00;13.95;;;;;;;;;;5113511;27;20105;-79
2021/09/26 11:42:34;;;;;;;18.15;15.27;;;;;;;;;;5108319;27;20043;-80
2021/09/26 11:45:02;;;;;;;17.63;14.52;;;;;;;;;;5130258;27;20043;-77
2021/09/26 11:47:28;;;;;;;17.73;14.57;;;;;;;;;;5128825;27;20042;-77
2021/09/26 11:50:01;;;;;;;19.42;15.63;;;;;;;;;;5114029;27;20047;-77
2021/09/26 11:52:27;;;;;;;18.88;14.65;;;;;;;;;;5122413;27;20082;-76
2021/09/26 11:55:00;;;;;;;18.40;14.80;;;;;;;;;;5113708;27;20125;-76
2021/09/26 11:57:26;;;;;;;19.40;13.82;;;;;;;;;;5128462;27;20134;-77
2021/09/26 11:59:52;;;;;;;19.65;14.38;;;;;;;;;;5112173;27;20082;-76
2021/09/26 12:02:18;;;;;;;19.27;13.82;;;;;;;;;;5091239;27;20043;-78
2021/09/26 12:04:44;;;;;;;16.33;14.60;;;;;;;;;;5106868;28;20138;-81
2021/09/26 12:07:11;;;;;;;18.73;14.85;;;;;;;;;;5086558;28;20380;-81
2021/09/26 12:09:39;;;;;;;21.60;14.85;;;;;;;;;;5104134;28;20131;-77
2021/09/26 12:12:11;;;;;;;16.80;14.40;;;;;;;;;;5113328;28;20135;-78
2021/09/26 12:14:38;;;;;;;17.65;13.85;;;;;;;;;;5110963;28;20508;-76
2021/09/26 12:17:06;;;;;;;17.95;14.35;;;;;;;;;;5117091;28;20872;-76
2021/09/26 12:19:32;;;;;;;19.98;14.55;;;;;;;;;;5120755;28;20043;-75
2021/09/26 12:22:20;;;;;;;16.20;13.75;;;;;;;;;;5107041;28;20123;-77
2021/09/26 12:24:46;;;;;;;20.05;14.25;;;;;;;;;;5117236;28;20043;-75
2021/09/26 12:27:31;;;;;;;16.50;14.38;;;;;;;;;;5114715;28;20115;-75
2021/09/26 12:30:11;;;;;;;18.27;13.40;;;;;;;;;;5112527;28;20496;-77
2021/09/26 12:32:40;;;;;;;16.88;14.35;;;;;;;;;;5097173;28;20066;-75
2021/09/26 12:35:11;;;;;;;18.10;13.60;;;;;;;;;;5124570;28;20045;-74
2021/09/26 12:37:46;;;;;;;20.00;14.05;;;;;;;;;;5127270;28;20081;-74
2021/09/26 12:40:13;;;;;;;74.95;18.63;;;;;;;;;;5109792;28;20043;-75
2021/09/26 12:42:46;;;;;;;21.63;13.90;;;;;;;;;;5116224;28;20039;-74
2021/09/26 12:45:19;;;;;;;52.30;17.63;;;;;;;;;;5108685;27;20043;-74
2021/09/26 12:47:45;;;;;;;17.77;14.05;;;;;;;;;;5116506;27;20062;-73
2021/09/26 12:50:13;;;;;;;17.83;14.05;;;;;;;;;;5114969;27;20044;-74
2021/09/26 12:52:40;;;;;;;42.95;17.05;;;;;;;;;;5124856;27;20462;-75
2021/09/26 12:55:08;;;;;;;19.48;14.88;;;;;;;;;;5120675;27;20161;-76
2021/09/26 12:57:34;;;;;;;15.27;13.70;;;;;;;;;;5126615;27;20382;-75
2021/09/26 13:00:18;;;;;;;16.45;14.25;;;;;;;;;;5120501;27;20121;-74
2021/09/26 13:02:55;;;;;;;16.17;14.27;;;;;;;;;;5119141;27;20039;-77
2021/09/26 13:05:36;;;;;;;16.67;12.80;;;;;;;;;;5127886;27;20084;-75
2021/09/26 13:08:05;;;;;;;16.75;13.27;;;;;;;;;;5103501;27;20061;-76
2021/09/26 13:10:32;;;;;;;14.65;13.18;;;;;;;;;;5102663;27;20045;-75
2021/09/26 13:13:08;;;;;;;18.77;13.40;;;;;;;;;;5102531;27;20204;-76
2021/09/26 13:15:37;;;;;;;14.48;12.80;;;;;;;;;;5116888;27;20047;-80
2021/09/26 13:18:17;;;;;;;18.67;13.98;;;;;;;;;;5117347;27;20054;-76
2021/09/26 13:20:44;;;;;;;15.38;13.70;;;;;;;;;;5127919;27;20054;-78
2021/09/26 13:23:28;;;;;;;15.95;13.38;;;;;;;;;;5122464;27;20508;-77
2021/09/26 13:26:04;;;;;;;19.42;14.52;;;;;;;;;;5099464;27;20090;-77
2021/09/26 13:28:31;;;;;;;26.75;14.80;;;;;;;;;;5135553;27;20039;-76
2021/09/26 13:31:01;;;;;;;20.50;14.38;;;;;;;;;;5125154;27;20465;-76
2021/09/26 13:33:30;;;;;;;16.23;13.48;;;;;;;;;;5119957;27;20054;-76
2021/09/26 13:36:06;;;;;;;16.50;13.40;;;;;;;;;;5112819;27;20621;-76
2021/09/26 13:38:32;;;;;;;14.75;12.80;;;;;;;;;;5123806;27;20072;-76
2021/09/26 13:41:01;;;;;;;14.88;13.35;;;;;;;;;;5104940;27;20103;-76
2021/09/26 13:43:27;;;;;;;16.95;13.68;;;;;;;;;;5117008;27;20139;-76
2021/09/26 13:45:54;;;;;;;14.75;13.25;;;;;;;;;;5119216;27;20048;-76
2021/09/26 13:48:20;;;;;;;19.50;14.38;;;;;;;;;;5114460;27;20130;-76
2021/09/26 13:50:46;;;;;;;15.50;13.75;;;;;;;;;;5118203;27;20382;-76
2021/09/26 13:53:19;;;;;;;17.15;13.70;;;;;;;;;;5122026;27;20044;-76
2021/09/26 13:55:45;;;;;;;;;;;;;;;;;;5119871;27;20136;-80
2021/09/26 13:58:11;;;;;;;18.75;13.65;;;;;;;;;;5119662;27;19933;-78
2021/09/26 14:00:38;;;;;;;18.58;13.15;;;;;;;;;;5117487;27;20035;-78
2021/09/26 14:03:04;;;;;;;14.45;12.38;;;;;;;;;;5116579;27;20039;-77
2021/09/26 14:05:30;;;;;;;17.98;12.80;;;;;;;;;;5088517;27;20046;-77
2021/09/26 14:07:56;;;;;;;14.13;11.85;;;;;;;;;;5114573;27;20032;-76
2021/09/26 14:10:23;;;;;;;14.05;10.88;;;;;;;;;;5104336;27;20052;-77
2021/09/26 14:12:49;;;;;;;12.45;11.10;;;;;;;;;;5127794;27;20038;-76
2021/09/26 14:15:15;;;;;;;16.17;11.63;;;;;;;;;;5118022;27;20051;-76
2021/09/26 14:17:41;;;;;;;11.88;10.57;;;;;;;;;;5118349;27;20055;-76
2021/09/26 14:20:08;;;;;;;13.80;11.05;;;;;;;;;;5102573;27;20051;-76